createdAt,value
2018-07-25T00:01:08.564Z,52.90
2018-07-25T00:03:36.875Z,52.70
2018-07-25T00:06:05.179Z,52.60
2018-07-25T00:11:01.541Z,52.50
2018-07-25T00:13:29.866Z,52.30
2018-07-25T00:15:58.192Z,52.30
2018-07-25T00:18:26.546Z,52.30
2018-07-25T00:20:54.800Z,52.30
2018-07-25T00:23:23.120Z,52.30
2018-07-25T00:25:51.417Z,52.20
2018-07-25T00:28:19.722Z,52.10
2018-07-25T00:30:48.039Z,52.40
2018-07-25T00:33:16.442Z,52.20
2018-07-25T00:35:44.747Z,52.20
2018-07-25T00:38:13.054Z,52.60
2018-07-25T00:40:41.351Z,52.20
2018-07-25T00:43:09.655Z,52.20
2018-07-25T00:45:37.938Z,52.20
2018-07-25T00:48:06.264Z,52.20
2018-07-25T00:50:34.571Z,52.20
2018-07-25T00:53:02.872Z,52.20
2018-07-25T00:55:31.231Z,52.20
2018-07-25T00:57:59.588Z,52.30
2018-07-25T01:00:27.873Z,52.20
2018-07-25T01:02:56.179Z,52.30
2018-07-25T01:05:24.478Z,52.30
2018-07-25T01:07:52.819Z,52.40
2018-07-25T01:10:21.104Z,52.30
2018-07-25T01:12:49.402Z,52.30
2018-07-25T01:15:17.711Z,52.30
2018-07-25T01:17:46.018Z,52.30
2018-07-25T01:20:14.379Z,52.30
2018-07-25T01:22:42.678Z,52.30
2018-07-25T01:25:10.994Z,52.30
2018-07-25T01:27:39.306Z,52.30
2018-07-25T01:30:08.575Z,52.30
2018-07-25T01:32:36.891Z,52.30
2018-07-25T01:35:05.177Z,52.30
2018-07-25T01:37:33.541Z,52.30
2018-07-25T01:40:01.834Z,52.40
2018-07-25T01:42:30.143Z,52.40
2018-07-25T01:44:58.430Z,52.40
2018-07-25T01:47:27.343Z,52.50
2018-07-25T01:49:55.650Z,52.50
2018-07-25T01:52:23.974Z,52.50
2018-07-25T01:57:20.478Z,52.60
2018-07-25T01:59:48.855Z,52.50
2018-07-25T02:02:17.194Z,52.50
2018-07-25T02:04:45.494Z,52.50
2018-07-25T02:07:13.858Z,52.50
2018-07-25T02:09:42.191Z,52.60
2018-07-25T02:12:10.582Z,52.60
2018-07-25T02:14:38.903Z,52.60
2018-07-25T02:17:07.198Z,52.60
2018-07-25T02:19:35.587Z,52.60
2018-07-25T02:22:03.818Z,52.60
2018-07-25T02:24:32.202Z,52.60
2018-07-25T02:27:00.490Z,52.60
2018-07-25T02:29:28.812Z,52.70
2018-07-25T02:31:57.116Z,52.70
2018-07-25T02:34:25.416Z,52.70
2018-07-25T02:36:53.756Z,52.70
2018-07-25T02:39:22.062Z,52.70
2018-07-25T02:41:50.407Z,52.70
2018-07-25T02:44:18.708Z,52.70
2018-07-25T02:46:47.019Z,52.70
2018-07-25T02:49:15.403Z,52.70
2018-07-25T02:51:43.709Z,52.80
2018-07-25T02:54:12.006Z,52.80
2018-07-25T02:56:40.348Z,52.80
2018-07-25T02:59:08.628Z,52.80
2018-07-25T03:01:36.927Z,52.80
2018-07-25T03:04:05.210Z,52.90
2018-07-25T03:06:33.513Z,52.90
2018-07-25T03:09:01.866Z,52.90
2018-07-25T03:11:30.091Z,53.00
2018-07-25T03:13:58.460Z,53.00
2018-07-25T03:16:26.751Z,53.00
2018-07-25T03:18:55.057Z,53.00
2018-07-25T03:21:23.355Z,53.10
2018-07-25T03:23:51.658Z,53.30
2018-07-25T03:26:19.976Z,53.30
2018-07-25T03:28:48.322Z,53.30
2018-07-25T03:31:16.898Z,53.30
2018-07-25T03:33:45.120Z,53.90
2018-07-25T03:36:13.446Z,53.30
2018-07-25T03:38:41.735Z,53.30
2018-07-25T03:41:10.047Z,53.30
2018-07-25T03:43:38.338Z,53.30
2018-07-25T03:46:06.678Z,53.40
2018-07-25T03:48:34.995Z,53.40
2018-07-25T03:51:03.285Z,53.50
2018-07-25T03:53:31.610Z,53.40
2018-07-25T03:55:59.905Z,53.50
2018-07-25T03:58:28.226Z,53.60
2018-07-25T04:03:24.564Z,53.50
2018-07-25T04:05:52.883Z,53.50
2018-07-25T04:08:21.241Z,53.50
2018-07-25T04:10:50.098Z,53.50
2018-07-25T04:13:19.374Z,53.60
2018-07-25T04:15:47.869Z,53.60
2018-07-25T04:18:16.194Z,53.70
2018-07-25T04:20:44.498Z,53.60
2018-07-25T04:23:12.802Z,53.60
2018-07-25T04:28:09.145Z,53.60
2018-07-25T04:30:37.480Z,53.60
2018-07-25T04:33:05.983Z,53.60
2018-07-25T04:35:34.290Z,53.60
2018-07-25T04:38:02.582Z,53.60
2018-07-25T04:40:30.893Z,53.70
2018-07-25T04:42:59.287Z,53.60
2018-07-25T04:45:27.587Z,53.60
2018-07-25T04:47:55.870Z,53.60
2018-07-25T04:50:24.174Z,53.60
2018-07-25T04:52:52.703Z,53.60
2018-07-25T04:55:21.025Z,53.60
2018-07-25T04:57:49.706Z,53.70
2018-07-25T05:00:18.231Z,53.60
2018-07-25T05:02:46.544Z,53.70
2018-07-25T05:05:14.842Z,53.90
2018-07-25T05:07:43.135Z,53.90
2018-07-25T05:10:11.446Z,53.90
2018-07-25T05:12:39.862Z,53.90
2018-07-25T05:15:08.153Z,54.10
2018-07-25T05:17:36.439Z,53.80
2018-07-25T05:20:04.893Z,53.90
2018-07-25T05:22:33.208Z,54.00
2018-07-25T05:27:29.628Z,54.00
2018-07-25T05:29:57.932Z,54.00
2018-07-25T05:32:26.231Z,54.00
2018-07-25T05:34:54.526Z,54.10
2018-07-25T05:37:22.839Z,54.00
2018-07-25T05:39:51.126Z,54.00
2018-07-25T05:42:19.437Z,54.10
2018-07-25T05:44:47.743Z,56.40
2018-07-25T05:47:16.058Z,58.50
2018-07-25T05:49:44.350Z,59.40
2018-07-25T05:52:12.646Z,60.50
2018-07-25T05:54:41.057Z,60.80
2018-07-25T05:57:09.432Z,62.00
2018-07-25T05:59:37.795Z,61.80
2018-07-25T06:02:06.178Z,61.90
2018-07-25T06:04:34.487Z,62.00
2018-07-25T06:07:02.881Z,62.00
2018-07-25T06:11:59.385Z,63.40
2018-07-25T06:14:27.689Z,62.70
2018-07-25T06:16:56.611Z,62.80
2018-07-25T06:19:24.972Z,63.20
2018-07-25T06:21:53.323Z,63.40
2018-07-25T06:24:21.699Z,63.00
2018-07-25T06:26:50.076Z,62.10
2018-07-25T06:29:18.436Z,62.30
2018-07-25T06:31:46.751Z,62.00
2018-07-25T06:34:15.093Z,62.10
2018-07-25T06:36:43.464Z,62.60
2018-07-25T06:39:13.168Z,63.10
2018-07-25T06:41:41.599Z,63.30
2018-07-25T06:44:10.300Z,63.60
2018-07-25T06:46:38.890Z,63.20
2018-07-25T06:49:08.105Z,63.30
2018-07-25T06:51:36.664Z,63.10
2018-07-25T06:56:33.082Z,63.10
2018-07-25T06:59:01.417Z,63.60
2018-07-25T07:01:30.061Z,64.00
2018-07-25T07:03:58.390Z,64.10
2018-07-25T07:06:26.682Z,64.10
2018-07-25T07:08:55.035Z,64.40
2018-07-25T07:11:23.803Z,64.10
2018-07-25T07:13:52.276Z,63.80
2018-07-25T07:16:20.604Z,63.80
2018-07-25T07:18:48.978Z,63.20
2018-07-25T07:21:17.434Z,63.30
2018-07-25T07:23:45.766Z,63.20
2018-07-25T07:26:14.064Z,64.00
2018-07-25T07:28:42.374Z,64.10
2018-07-25T07:31:10.822Z,64.50
2018-07-25T07:33:39.124Z,64.10
2018-07-25T07:38:35.615Z,64.10
2018-07-25T07:41:03.954Z,64.40
2018-07-25T07:43:32.271Z,63.80
2018-07-25T07:46:00.712Z,63.50
2018-07-25T07:48:29.006Z,63.60
2018-07-25T07:50:57.346Z,63.50
2018-07-25T07:53:25.672Z,63.40
2018-07-25T07:55:54.003Z,63.10
2018-07-25T07:58:22.291Z,63.80
2018-07-25T08:03:18.668Z,64.60
2018-07-25T08:05:47.441Z,64.70
2018-07-25T08:08:15.747Z,64.30
2018-07-25T08:10:44.224Z,64.80
2018-07-25T08:13:12.397Z,65.30
2018-07-25T08:15:40.722Z,65.20
2018-07-25T08:18:09.029Z,64.70
2018-07-25T08:20:37.487Z,64.30
2018-07-25T08:23:05.791Z,64.90
2018-07-25T08:25:34.483Z,64.50
2018-07-25T08:28:02.746Z,64.40
2018-07-25T08:30:31.082Z,64.00
2018-07-25T08:32:59.430Z,64.10
2018-07-25T08:35:27.736Z,63.70
2018-07-25T08:37:56.049Z,62.50
2018-07-25T08:40:24.355Z,61.80
2018-07-25T08:42:52.663Z,61.60
2018-07-25T08:45:20.969Z,61.40
2018-07-25T08:47:49.278Z,61.60
2018-07-25T08:50:17.594Z,61.10
2018-07-25T08:52:45.961Z,61.50
2018-07-25T08:55:14.258Z,61.70
2018-07-25T08:57:42.613Z,61.80
2018-07-25T09:00:10.898Z,61.90
2018-07-25T09:02:39.218Z,62.20
2018-07-25T09:05:07.515Z,61.50
2018-07-25T09:07:35.883Z,60.90
2018-07-25T09:10:04.355Z,60.60
2018-07-25T09:12:32.720Z,59.90
2018-07-25T09:15:00.987Z,59.30
2018-07-25T09:17:29.312Z,59.20
2018-07-25T09:19:57.618Z,59.10
2018-07-25T09:22:25.917Z,59.50
2018-07-25T09:24:54.202Z,59.00
2018-07-25T09:27:22.518Z,59.30
2018-07-25T09:29:50.794Z,59.50
2018-07-25T09:32:19.110Z,59.60
2018-07-25T09:34:47.410Z,59.10
2018-07-25T09:37:15.705Z,58.30
2018-07-25T09:39:44.016Z,57.10
2018-07-25T09:42:14.022Z,56.80
2018-07-25T09:44:42.317Z,56.80
2018-07-25T09:47:10.667Z,56.30
2018-07-25T09:49:38.973Z,56.20
2018-07-25T09:52:07.302Z,56.30
2018-07-25T09:54:35.619Z,56.60
2018-07-25T09:59:32.050Z,56.80
2018-07-25T10:02:00.403Z,56.90
2018-07-25T10:06:56.801Z,57.50
2018-07-25T10:09:25.191Z,57.10
2018-07-25T10:11:53.521Z,57.10
2018-07-25T10:14:21.828Z,57.00
2018-07-25T10:16:50.155Z,57.00
2018-07-25T10:19:18.428Z,57.00
2018-07-25T10:21:46.773Z,57.00
2018-07-25T10:24:15.059Z,56.90
2018-07-25T10:26:43.390Z,57.10
2018-07-25T10:29:11.776Z,56.90
2018-07-25T10:31:40.070Z,57.00
2018-07-25T10:34:08.607Z,56.90
2018-07-25T10:36:37.482Z,57.00
2018-07-25T10:39:07.284Z,56.90
2018-07-25T10:41:35.797Z,56.90
2018-07-25T10:44:04.266Z,56.90
2018-07-25T10:46:32.561Z,56.80
2018-07-25T10:49:00.892Z,56.80
2018-07-25T10:51:29.196Z,56.80
2018-07-25T10:53:57.537Z,56.90
2018-07-25T10:56:26.065Z,56.80
2018-07-25T10:58:54.387Z,56.70
2018-07-25T11:01:22.697Z,56.70
2018-07-25T11:03:51.044Z,56.70
2018-07-25T11:06:19.489Z,56.70
2018-07-25T11:08:48.160Z,56.70
2018-07-25T11:11:16.572Z,56.90
2018-07-25T11:13:44.866Z,56.60
2018-07-25T11:16:13.299Z,56.60
2018-07-25T11:18:41.706Z,56.60
2018-07-25T11:21:10.080Z,56.50
2018-07-25T11:23:38.533Z,56.50
2018-07-25T11:26:06.842Z,56.50
2018-07-25T11:31:03.358Z,56.50
2018-07-25T11:33:31.835Z,56.50
2018-07-25T11:36:00.153Z,56.50
2018-07-25T11:38:28.462Z,56.40
2018-07-25T11:40:56.775Z,56.40
2018-07-25T11:43:25.112Z,56.40
2018-07-25T11:45:53.411Z,56.40
2018-07-25T11:48:21.699Z,56.30
2018-07-25T11:50:50.004Z,56.30
2018-07-25T11:53:18.349Z,56.30
2018-07-25T11:55:46.673Z,56.20
2018-07-25T11:58:14.939Z,56.20
2018-07-25T12:00:43.246Z,56.10
2018-07-25T12:03:11.603Z,56.20
2018-07-25T12:05:39.920Z,56.10
2018-07-25T12:08:08.235Z,56.00
2018-07-25T12:13:04.777Z,56.50
2018-07-25T12:18:01.155Z,56.10
2018-07-25T12:20:29.524Z,56.00
2018-07-25T12:22:57.824Z,56.10
2018-07-25T12:25:26.224Z,56.00
2018-07-25T12:27:54.858Z,55.90
2018-07-25T12:30:23.200Z,55.90
2018-07-25T12:32:51.862Z,55.80
2018-07-25T12:35:20.213Z,55.70
2018-07-25T12:37:48.556Z,55.70
2018-07-25T12:40:16.897Z,55.70
2018-07-25T12:42:45.294Z,55.50
2018-07-25T12:45:14.375Z,55.50
2018-07-25T12:47:43.127Z,55.50
2018-07-25T12:52:39.980Z,54.90
2018-07-25T12:55:08.342Z,54.90
2018-07-25T12:57:36.674Z,54.70
2018-07-25T13:00:06.650Z,55.10
2018-07-25T13:02:35.011Z,55.10
2018-07-25T13:05:03.369Z,55.10
2018-07-25T13:07:31.702Z,54.90
2018-07-25T13:10:00.044Z,54.90
2018-07-25T13:12:28.389Z,54.70
2018-07-25T13:14:56.744Z,54.80
2018-07-25T13:19:53.171Z,54.70
2018-07-25T13:22:22.456Z,54.80
2018-07-25T13:24:50.836Z,54.80
2018-07-25T13:27:19.199Z,54.70
2018-07-25T13:29:47.534Z,55.00
2018-07-25T13:32:15.957Z,54.90
2018-07-25T13:34:44.275Z,54.70
2018-07-25T13:37:12.620Z,54.50
2018-07-25T13:39:41.006Z,54.60
2018-07-25T13:42:09.338Z,54.40
2018-07-25T13:44:37.695Z,54.30
2018-07-25T13:49:34.459Z,54.60
2018-07-25T13:52:02.829Z,54.40
2018-07-25T13:54:31.412Z,54.30
2018-07-25T13:56:59.733Z,54.40
2018-07-25T13:59:28.323Z,54.50
2018-07-25T14:01:56.707Z,54.50
2018-07-25T14:04:25.050Z,54.40
2018-07-25T14:06:53.371Z,54.30
2018-07-25T14:09:21.757Z,54.30
2018-07-25T14:11:50.151Z,54.30
2018-07-25T14:14:18.504Z,54.30
2018-07-25T14:16:46.821Z,54.30
2018-07-25T14:19:15.185Z,54.40
2018-07-25T14:21:43.535Z,54.30
2018-07-25T14:24:11.882Z,54.20
2018-07-25T14:26:40.207Z,54.20
2018-07-25T14:29:08.692Z,54.20
2018-07-25T14:31:36.903Z,54.20
2018-07-25T14:34:05.249Z,54.20
2018-07-25T14:36:33.564Z,54.20
2018-07-25T14:39:01.900Z,54.20
2018-07-25T14:41:30.230Z,54.20
2018-07-25T14:43:58.657Z,54.20
2018-07-25T14:46:26.994Z,54.20
2018-07-25T14:48:55.411Z,57.50
2018-07-25T14:51:23.831Z,54.30
2018-07-25T14:53:52.087Z,54.20
2018-07-25T14:56:20.732Z,54.20
2018-07-25T14:58:49.075Z,54.50
2018-07-25T15:01:17.505Z,54.20
2018-07-25T15:03:46.029Z,54.10
2018-07-25T15:06:14.368Z,54.80
2018-07-25T15:08:42.714Z,54.00
2018-07-25T15:11:11.030Z,53.90
2018-07-25T15:13:39.351Z,54.00
2018-07-25T15:16:07.697Z,53.80
2018-07-25T15:18:36.038Z,53.90
2018-07-25T15:21:04.353Z,53.80
2018-07-25T15:23:44.509Z,54.10
2018-07-25T15:26:12.686Z,54.00
2018-07-25T15:28:41.029Z,54.20
2018-07-25T15:31:09.359Z,54.20
2018-07-25T15:33:37.676Z,54.30
2018-07-25T15:36:06.016Z,54.30
2018-07-25T15:38:34.324Z,54.20
2018-07-25T15:41:02.637Z,54.20
2018-07-25T15:43:30.952Z,54.30
2018-07-25T15:45:59.280Z,54.30
2018-07-25T15:48:27.603Z,54.30
2018-07-25T15:50:56.011Z,54.40
2018-07-25T15:53:24.403Z,54.40
2018-07-25T15:55:52.731Z,54.30
2018-07-25T16:00:49.094Z,54.00
2018-07-25T16:03:17.419Z,53.80
2018-07-25T16:05:45.746Z,53.40
2018-07-25T16:08:14.074Z,54.30
2018-07-25T16:10:42.415Z,53.70
2018-07-25T16:13:10.788Z,53.60
2018-07-25T16:15:39.165Z,53.70
2018-07-25T16:18:07.625Z,53.80
2018-07-25T16:23:04.071Z,54.50
2018-07-25T16:25:32.403Z,54.00
2018-07-25T16:28:00.800Z,54.80
2018-07-25T16:30:29.144Z,54.00
2018-07-25T16:32:57.538Z,54.20
2018-07-25T16:35:25.884Z,54.00
2018-07-25T16:37:54.342Z,54.00
2018-07-25T16:42:50.891Z,53.80
2018-07-25T16:45:19.211Z,54.00
2018-07-25T16:47:47.642Z,53.90
2018-07-25T16:50:15.927Z,53.90
2018-07-25T16:52:44.285Z,53.90
2018-07-25T16:55:12.606Z,54.40
2018-07-25T16:57:40.934Z,53.90
2018-07-25T17:00:09.302Z,53.50
2018-07-25T17:02:37.689Z,53.40
2018-07-25T17:05:06.015Z,53.20
2018-07-25T17:07:34.357Z,53.20
2018-07-25T17:10:02.718Z,53.20
2018-07-25T17:12:31.103Z,53.30
2018-07-25T17:14:59.447Z,53.70
2018-07-25T17:17:27.792Z,53.60
2018-07-25T17:19:56.148Z,53.90
2018-07-25T17:22:24.501Z,54.00
2018-07-25T17:24:52.798Z,54.00
2018-07-25T17:27:21.207Z,54.00
2018-07-25T17:29:49.993Z,54.00
2018-07-25T17:32:18.318Z,54.00
2018-07-25T17:34:46.659Z,54.10
2018-07-25T17:37:14.979Z,54.20
2018-07-25T17:39:43.643Z,54.20
2018-07-25T17:42:11.951Z,54.20
2018-07-25T17:44:40.277Z,54.30
2018-07-25T17:47:08.827Z,54.80
2018-07-25T17:49:37.172Z,54.20
2018-07-25T17:52:05.901Z,54.30
2018-07-25T17:54:34.518Z,54.30
2018-07-25T17:57:02.844Z,54.30
2018-07-25T17:59:31.176Z,54.40
2018-07-25T18:01:59.502Z,54.40
2018-07-25T18:04:27.850Z,54.40
2018-07-25T18:06:56.281Z,54.40
2018-07-25T18:09:24.590Z,54.30
2018-07-25T18:11:53.024Z,54.40
2018-07-25T18:14:21.468Z,54.40
2018-07-25T18:16:49.907Z,54.40
2018-07-25T18:19:18.522Z,54.40
2018-07-25T18:21:47.154Z,54.40
2018-07-25T18:24:15.521Z,54.50
2018-07-25T18:26:44.211Z,54.50
2018-07-25T18:29:12.627Z,54.50
2018-07-25T18:34:09.229Z,55.30
2018-07-25T18:36:37.581Z,54.50
2018-07-25T18:39:08.727Z,54.50
2018-07-25T18:41:37.612Z,54.50
2018-07-25T18:44:06.476Z,54.60
2018-07-25T18:46:35.134Z,54.50
2018-07-25T18:49:04.026Z,54.60
2018-07-25T18:51:32.812Z,54.60
2018-07-25T18:54:01.498Z,54.50
2018-07-25T18:56:30.288Z,54.60
2018-07-25T18:58:58.973Z,54.70
2018-07-25T19:01:27.658Z,54.40
2018-07-25T19:06:24.172Z,54.80
2018-07-25T19:08:53.001Z,54.80
2018-07-25T19:11:21.779Z,54.50
2018-07-25T19:13:55.780Z,54.90
2018-07-25T19:16:24.448Z,55.10
2018-07-25T19:18:53.163Z,55.30
2018-07-25T19:21:21.561Z,55.30
2018-07-25T19:23:50.363Z,55.30
2018-07-25T19:26:18.812Z,55.30
2018-07-25T19:28:47.138Z,55.40
2018-07-25T19:31:16.191Z,55.40
2018-07-25T19:33:44.986Z,55.80
2018-07-25T19:36:14.088Z,56.00
2018-07-25T19:38:42.839Z,56.10
2018-07-25T19:41:11.632Z,56.40
2018-07-25T19:43:40.024Z,56.40
2018-07-25T19:46:08.437Z,56.50
2018-07-25T19:48:37.407Z,57.00
2018-07-25T19:51:05.740Z,58.40
2018-07-25T19:53:34.366Z,57.50
2018-07-25T19:56:03.054Z,59.20
2018-07-25T19:58:31.948Z,59.90
2018-07-25T20:01:00.880Z,60.60
2018-07-25T20:03:29.561Z,60.60
2018-07-25T20:05:58.616Z,60.40
2018-07-25T20:08:27.301Z,60.60
2018-07-25T20:10:56.885Z,60.50
2018-07-25T20:13:25.524Z,60.20
2018-07-25T20:15:57.162Z,60.50
2018-07-25T20:18:26.247Z,60.10
2018-07-25T20:23:23.752Z,59.90
2018-07-25T20:25:52.403Z,59.50
2018-07-25T20:28:20.735Z,59.20
2018-07-25T20:30:49.444Z,58.80
2018-07-25T20:33:18.360Z,58.10
2018-07-25T20:35:47.233Z,58.10
2018-07-25T20:38:15.714Z,57.40
2018-07-25T20:40:44.644Z,57.10
2018-07-25T20:43:13.571Z,56.90
2018-07-25T20:45:42.529Z,56.70
2018-07-25T20:48:11.469Z,56.60
2018-07-25T20:50:40.626Z,56.40
2018-07-25T20:53:10.201Z,56.20
2018-07-25T20:55:39.532Z,56.10
2018-07-25T20:58:08.121Z,55.40
2018-07-25T21:00:36.872Z,55.80
2018-07-25T21:03:06.929Z,56.50
2018-07-25T21:05:35.848Z,55.90
2018-07-25T21:08:05.147Z,55.90
2018-07-25T21:10:34.012Z,55.90
2018-07-25T21:13:03.106Z,55.90
2018-07-25T21:15:31.553Z,55.90
2018-07-25T21:17:59.908Z,55.80
2018-07-25T21:20:28.283Z,55.90
2018-07-25T21:22:56.679Z,55.90
2018-07-25T21:25:25.874Z,55.90
2018-07-25T21:27:55.032Z,55.90
2018-07-25T21:30:23.491Z,56.10
2018-07-25T21:32:52.083Z,55.80
2018-07-25T21:35:20.517Z,55.80
2018-07-25T21:37:49.013Z,55.80
2018-07-25T21:40:17.521Z,56.00
2018-07-25T21:42:45.859Z,55.80
2018-07-25T21:45:14.409Z,55.80
2018-07-25T21:47:42.994Z,55.70
2018-07-25T21:50:11.548Z,55.70
2018-07-25T21:52:39.974Z,55.70
2018-07-25T21:55:08.386Z,55.80
2018-07-25T21:57:36.907Z,55.80
2018-07-25T22:00:09.430Z,55.70
2018-07-25T22:02:37.918Z,55.90
2018-07-25T22:05:06.458Z,55.90
2018-07-25T22:07:35.140Z,55.90
2018-07-25T22:10:03.586Z,55.90
2018-07-25T22:12:32.293Z,55.80
2018-07-25T22:15:01.010Z,56.20
2018-07-25T22:17:29.534Z,56.30
2018-07-25T22:19:58.119Z,56.40
2018-07-25T22:22:26.724Z,56.50
2018-07-25T22:24:55.203Z,56.90
2018-07-25T22:27:23.676Z,56.60
2018-07-25T22:29:52.122Z,56.70
2018-07-25T22:32:20.566Z,56.60
2018-07-25T22:34:48.899Z,56.80
2018-07-25T22:37:17.242Z,56.80
2018-07-25T22:39:45.925Z,56.80
2018-07-25T22:42:14.223Z,56.90
2018-07-25T22:44:42.547Z,57.20
2018-07-25T22:47:10.942Z,57.20
2018-07-25T22:49:39.268Z,57.20
2018-07-25T22:52:07.609Z,57.20
2018-07-25T22:54:35.908Z,57.30
2018-07-25T22:57:04.215Z,57.30
2018-07-25T22:59:32.499Z,57.60
2018-07-25T23:02:00.859Z,57.60
2018-07-25T23:04:29.494Z,57.80
2018-07-25T23:06:57.831Z,57.80
2018-07-25T23:09:26.140Z,57.80
2018-07-25T23:11:54.482Z,57.90
2018-07-25T23:14:22.943Z,57.90
2018-07-25T23:16:51.255Z,58.00
2018-07-25T23:19:19.547Z,58.00
2018-07-25T23:26:44.534Z,58.50
2018-07-25T23:29:12.839Z,58.50
2018-07-25T23:31:41.374Z,58.50
2018-07-25T23:34:09.706Z,58.70
2018-07-25T23:36:38.016Z,58.80
2018-07-25T23:39:07.882Z,58.60
2018-07-25T23:41:36.202Z,58.70
2018-07-25T23:44:04.583Z,58.90
2018-07-25T23:46:32.925Z,59.00
2018-07-25T23:49:01.208Z,59.00
2018-07-25T23:51:29.513Z,59.00
2018-07-25T23:53:57.812Z,59.20
2018-07-25T23:56:26.184Z,59.20
2018-07-25T23:58:54.703Z,59.20
